createdAt,value
2019-05-17T00:00:42.049Z,100354.16
2019-05-17T00:03:17.032Z,100356.48
2019-05-17T00:05:51.009Z,100355.94
2019-05-17T00:08:31.921Z,100349.06
2019-05-17T00:10:57.168Z,100341.05
2019-05-17T00:13:29.530Z,100343.36
2019-05-17T00:16:01.192Z,100337.49
2019-05-17T00:18:32.744Z,100332.13
2019-05-17T00:21:04.420Z,100333.84
2019-05-17T00:23:37.516Z,100330.98
2019-05-17T00:26:09.838Z,100323.66
2019-05-17T00:28:41.429Z,100326.27
2019-05-17T00:31:13.575Z,100320.52
2019-05-17T00:33:47.106Z,100326.16
2019-05-17T00:36:19.353Z,100317.87
2019-05-17T00:38:51.740Z,100311.81
2019-05-17T00:41:23.622Z,100309.05
2019-05-17T00:43:56.910Z,100305.53
2019-05-17T00:46:30.178Z,100303.03
2019-05-17T00:49:02.028Z,100304.81
2019-05-17T00:51:34.047Z,100302.17
2019-05-17T00:54:06.824Z,100300.48
2019-05-17T00:56:38.547Z,100302.15
2019-05-17T00:59:10.411Z,100299.47
2019-05-17T01:01:42.045Z,100293.94
2019-05-17T01:04:14.408Z,100300.50
2019-05-17T01:06:47.006Z,100300.50
2019-05-17T01:09:19.145Z,100301.12
2019-05-17T01:11:51.199Z,100297.50
2019-05-17T01:14:22.891Z,100290.55
2019-05-17T01:16:56.493Z,100289.52
2019-05-17T01:19:28.152Z,100292.77
2019-05-17T01:22:00.407Z,100287.04
2019-05-17T01:24:32.430Z,100293.50
2019-05-17T01:27:06.517Z,100287.62
2019-05-17T01:29:38.558Z,100287.06
2019-05-17T01:32:10.201Z,100285.25
2019-05-17T01:34:41.781Z,100275.67
2019-05-17T01:37:14.036Z,100277.56
2019-05-17T01:39:46.850Z,100270.03
2019-05-17T01:42:19.175Z,100268.58
2019-05-17T01:44:51.335Z,100266.23
2019-05-17T01:47:23.520Z,100280.11
2019-05-17T01:49:57.571Z,100269.81
2019-05-17T01:52:29.134Z,100266.31
2019-05-17T01:55:01.051Z,100262.91
2019-05-17T01:57:32.298Z,100261.19
2019-05-17T02:00:06.486Z,100260.42
2019-05-17T02:02:41.046Z,100254.02
2019-05-17T02:05:12.493Z,100260.58
2019-05-17T02:07:46.388Z,100259.12
2019-05-17T02:10:18.278Z,100256.93
2019-05-17T02:12:50.413Z,100253.92
2019-05-17T02:15:23.296Z,100246.02
2019-05-17T02:17:57.243Z,100242.17
2019-05-17T02:20:28.449Z,100239.77
2019-05-17T02:23:00.413Z,100234.42
2019-05-17T02:25:32.053Z,100243.09
2019-05-17T02:28:03.410Z,100245.03
2019-05-17T02:30:35.362Z,100246.45
2019-05-17T02:33:07.221Z,100235.52
2019-05-17T02:35:42.690Z,100240.64
2019-05-17T02:38:13.665Z,100238.45
2019-05-17T02:40:45.751Z,100233.84
2019-05-17T02:43:17.375Z,100237.23
2019-05-17T02:45:52.494Z,100232.61
2019-05-17T02:48:23.495Z,100229.50
2019-05-17T02:50:56.287Z,100233.34
2019-05-17T02:53:28.161Z,100233.89
2019-05-17T02:56:02.960Z,100237.55
2019-05-17T02:58:33.195Z,100240.80
2019-05-17T03:01:05.750Z,100247.16
2019-05-17T03:03:37.449Z,100242.22
2019-05-17T03:06:09.088Z,100246.06
2019-05-17T03:08:42.957Z,100249.64
2019-05-17T03:11:14.053Z,100245.98
2019-05-17T03:13:45.921Z,100256.39
2019-05-17T03:16:17.502Z,100257.86
2019-05-17T03:18:53.006Z,100255.30
2019-05-17T03:21:23.746Z,100251.92
2019-05-17T03:23:56.407Z,100252.32
2019-05-17T03:26:28.264Z,100252.75
2019-05-17T03:29:03.249Z,100251.33
2019-05-17T03:31:41.761Z,100253.97
2019-05-17T03:34:07.749Z,100251.95
2019-05-17T03:36:38.936Z,100250.23
2019-05-17T03:39:13.022Z,100251.33
2019-05-17T03:41:44.710Z,100251.33
2019-05-17T03:44:16.517Z,100245.98
2019-05-17T03:46:48.702Z,100248.28
2019-05-17T03:49:22.302Z,100248.69
2019-05-17T03:51:55.541Z,100242.19
2019-05-17T03:54:27.109Z,100256.71
2019-05-17T03:57:02.633Z,100259.17
2019-05-17T03:59:33.505Z,100261.49
2019-05-17T04:02:05.552Z,100267.45
2019-05-17T04:04:38.541Z,100266.77
2019-05-17T04:07:12.748Z,100261.56
2019-05-17T04:09:43.865Z,100260.55
2019-05-17T04:12:16.163Z,100271.09
2019-05-17T04:14:48.377Z,100262.11
2019-05-17T04:17:22.756Z,100260.13
2019-05-17T04:19:54.262Z,100264.42
2019-05-17T04:22:26.209Z,100260.77
2019-05-17T04:24:58.547Z,100256.23
2019-05-17T04:27:32.713Z,100268.33
2019-05-17T04:30:04.108Z,100263.53
2019-05-17T04:32:35.595Z,100257.49
2019-05-17T04:35:07.324Z,100256.53
2019-05-17T04:37:39.286Z,100259.64
2019-05-17T04:40:14.194Z,100256.04
2019-05-17T04:42:46.166Z,100254.75
2019-05-17T04:45:17.464Z,100249.11
2019-05-17T04:47:52.693Z,100252.58
2019-05-17T04:50:23.344Z,100248.27
2019-05-17T04:52:54.936Z,100252.11
2019-05-17T04:55:26.725Z,100246.36
2019-05-17T04:57:58.554Z,100247.96
2019-05-17T05:00:33.545Z,100258.39
2019-05-17T05:03:04.309Z,100254.50
2019-05-17T05:05:36.521Z,100261.40
2019-05-17T05:08:08.569Z,100269.23
2019-05-17T05:10:42.666Z,100263.78
2019-05-17T05:13:13.627Z,100263.48
2019-05-17T05:15:52.199Z,100264.20
2019-05-17T05:18:23.931Z,100261.15
2019-05-17T05:20:55.403Z,100264.18
2019-05-17T05:23:27.498Z,100262.08
2019-05-17T05:25:58.731Z,100259.97
2019-05-17T05:28:31.815Z,100261.20
2019-05-17T05:31:04.089Z,100258.01
2019-05-17T05:33:35.649Z,100257.30
2019-05-17T05:36:07.004Z,100252.94
2019-05-17T05:38:38.570Z,100254.77
2019-05-17T05:41:12.204Z,100259.78
2019-05-17T05:43:45.232Z,100256.99
2019-05-17T05:46:17.041Z,100263.06
2019-05-17T05:48:49.246Z,100264.50
2019-05-17T05:51:21.639Z,100257.89
2019-05-17T05:53:52.666Z,100257.89
2019-05-17T05:56:24.335Z,100260.21
2019-05-17T05:58:56.086Z,100264.01
2019-05-17T06:01:27.911Z,100256.93
2019-05-17T06:04:02.510Z,100254.02
2019-05-17T06:06:33.036Z,100250.04
2019-05-17T06:09:06.461Z,100239.73
2019-05-17T06:11:38.019Z,100243.36
2019-05-17T06:14:11.988Z,100240.81
2019-05-17T06:16:42.727Z,100243.52
2019-05-17T06:19:14.491Z,100232.56
2019-05-17T06:21:46.714Z,100223.50
2019-05-17T06:24:18.478Z,100226.13
2019-05-17T06:26:52.370Z,100219.95
2019-05-17T06:29:23.425Z,100217.47
2019-05-17T06:31:54.963Z,100220.95
2019-05-17T06:34:26.633Z,100224.27
2019-05-17T06:36:58.214Z,100214.81
2019-05-17T06:39:29.736Z,100213.91
2019-05-17T06:42:02.729Z,100211.14
2019-05-17T06:44:34.795Z,100209.54
2019-05-17T06:47:06.435Z,100217.75
2019-05-17T06:49:38.320Z,100217.86
2019-05-17T06:52:11.663Z,100206.05
2019-05-17T06:54:43.489Z,100207.38
2019-05-17T06:57:15.016Z,100199.72
2019-05-17T06:59:46.663Z,100203.12
2019-05-17T07:02:19.729Z,100206.95
2019-05-17T07:04:52.268Z,100200.20
2019-05-17T07:07:27.056Z,100197.41
2019-05-17T07:10:00.504Z,100204.32
2019-05-17T07:12:33.678Z,100201.37
2019-05-17T07:15:05.484Z,100197.33
2019-05-17T07:17:39.789Z,100211.06
2019-05-17T07:20:10.812Z,100207.80
2019-05-17T07:22:43.013Z,100200.31
2019-05-17T07:25:14.621Z,100205.12
2019-05-17T07:27:46.483Z,100206.17
2019-05-17T07:30:19.501Z,100206.97
2019-05-17T07:32:51.748Z,100210.81
2019-05-17T07:35:23.511Z,100213.89
2019-05-17T07:37:55.513Z,100213.58
2019-05-17T07:40:27.497Z,100210.96
2019-05-17T07:43:10.183Z,100210.02
2019-05-17T07:45:32.828Z,100209.17
2019-05-17T07:48:04.506Z,100211.16
2019-05-17T07:50:36.151Z,100213.37
2019-05-17T07:53:09.960Z,100206.80
2019-05-17T07:55:40.442Z,100209.28
2019-05-17T07:58:12.142Z,100210.30
2019-05-17T08:00:44.259Z,100210.30
2019-05-17T08:03:16.187Z,100211.62
2019-05-17T08:05:50.463Z,100206.12
2019-05-17T08:08:21.415Z,100207.89
2019-05-17T08:10:53.750Z,100205.69
2019-05-17T08:13:33.017Z,100204.27
2019-05-17T08:16:01.788Z,100200.86
2019-05-17T08:18:33.417Z,100199.64
2019-05-17T08:21:04.971Z,100206.13
2019-05-17T08:23:36.915Z,100202.16
2019-05-17T08:26:10.750Z,100195.66
2019-05-17T08:28:41.992Z,100205.28
2019-05-17T08:31:13.843Z,100193.23
2019-05-17T08:33:45.745Z,100190.32
2019-05-17T08:36:17.352Z,100191.16
2019-05-17T08:38:50.163Z,100192.08
2019-05-17T08:41:22.066Z,100191.91
2019-05-17T08:43:53.620Z,100186.02
2019-05-17T08:46:25.445Z,100188.56
2019-05-17T08:48:57.044Z,100195.52
2019-05-17T08:51:30.475Z,100190.00
2019-05-17T08:54:02.260Z,100182.97
2019-05-17T08:56:33.779Z,100190.14
2019-05-17T08:59:05.515Z,100183.91
2019-05-17T09:01:39.203Z,100184.13
2019-05-17T09:04:10.640Z,100178.71
2019-05-17T09:06:42.125Z,100179.36
2019-05-17T09:09:13.994Z,100175.44
2019-05-17T09:11:45.728Z,100182.85
2019-05-17T09:14:17.029Z,100176.39
2019-05-17T09:16:50.472Z,100171.45
2019-05-17T09:19:23.133Z,100175.31
2019-05-17T09:21:55.279Z,100171.34
2019-05-17T09:24:26.504Z,100172.67
2019-05-17T09:26:59.887Z,100168.17
2019-05-17T09:29:32.188Z,100161.80
2019-05-17T09:32:03.688Z,100164.22
2019-05-17T09:34:35.497Z,100158.77
2019-05-17T09:37:06.787Z,100161.45
2019-05-17T09:39:40.167Z,100161.66
2019-05-17T09:42:12.824Z,100157.39
2019-05-17T09:44:44.199Z,100161.67
2019-05-17T09:47:16.513Z,100156.58
2019-05-17T09:49:50.178Z,100158.29
2019-05-17T09:53:00.329Z,100150.83
2019-05-17T09:55:32.265Z,100149.19
2019-05-17T09:58:03.613Z,100144.75
2019-05-17T10:00:34.992Z,100149.23
2019-05-17T10:03:06.608Z,100137.92
2019-05-17T10:05:40.536Z,100147.50
2019-05-17T10:08:11.466Z,100132.47
2019-05-17T10:10:42.717Z,100128.05
2019-05-17T10:13:13.936Z,100126.42
2019-05-17T10:15:45.693Z,100112.05
2019-05-17T10:18:17.290Z,100118.09
2019-05-17T10:20:50.609Z,100117.97
2019-05-17T10:23:22.099Z,100110.37
2019-05-17T10:25:53.342Z,100109.86
2019-05-17T10:28:25.299Z,100104.11
2019-05-17T10:31:02.055Z,100106.22
2019-05-17T10:33:31.278Z,100106.94
2019-05-17T10:36:03.358Z,100104.33
2019-05-17T10:38:34.992Z,100103.02
2019-05-17T10:41:06.055Z,100099.52
2019-05-17T10:43:39.249Z,100095.52
2019-05-17T10:46:10.822Z,100099.00
2019-05-17T10:48:42.656Z,100098.67
2019-05-17T10:51:14.504Z,100084.21
2019-05-17T10:53:46.056Z,100080.95
2019-05-17T10:56:19.915Z,100086.91
2019-05-17T10:58:50.754Z,100080.41
2019-05-17T11:01:22.042Z,100082.96
2019-05-17T11:03:53.317Z,100087.53
2019-05-17T11:06:24.595Z,100086.58
2019-05-17T11:08:56.341Z,100074.94
2019-05-17T11:11:27.891Z,100076.47
2019-05-17T11:13:59.638Z,100068.59
2019-05-17T11:16:31.871Z,100075.59
2019-05-17T11:19:03.273Z,100077.16
2019-05-17T11:21:34.840Z,100071.47
2019-05-17T11:24:06.862Z,100079.23
2019-05-17T11:26:39.112Z,100079.63
2019-05-17T11:29:10.956Z,100078.48
2019-05-17T11:31:42.211Z,100070.25
2019-05-17T11:34:13.792Z,100083.91
2019-05-17T11:36:45.334Z,100076.86
2019-05-17T11:39:16.983Z,100073.23
2019-05-17T11:41:49.547Z,100071.39
2019-05-17T11:44:20.821Z,100061.92
2019-05-17T11:46:52.235Z,100062.56
2019-05-17T11:49:24.340Z,100056.10
2019-05-17T11:51:56.392Z,100066.95
2019-05-17T11:54:28.029Z,100070.50
2019-05-17T11:57:00.080Z,100061.88
2019-05-17T11:59:32.624Z,100066.00
2019-05-17T12:02:04.190Z,100056.34
2019-05-17T12:04:35.803Z,100063.22
2019-05-17T12:07:07.550Z,100064.42
2019-05-17T12:09:39.149Z,100071.31
2019-05-17T12:12:10.870Z,100072.48
2019-05-17T12:14:42.796Z,100074.98
2019-05-17T12:17:14.570Z,100070.75
2019-05-17T12:19:46.101Z,100065.53
2019-05-17T12:22:17.144Z,100067.77
2019-05-17T12:24:48.443Z,100061.48
2019-05-17T12:27:20.403Z,100062.09
2019-05-17T12:29:52.196Z,100059.60
2019-05-17T12:32:23.983Z,100057.05
2019-05-17T12:34:55.440Z,100057.85
2019-05-17T12:37:27.583Z,100063.20
2019-05-17T12:39:59.564Z,100055.27
2019-05-17T12:42:30.919Z,100053.97
2019-05-17T12:45:02.697Z,100048.59
2019-05-17T12:47:34.325Z,100050.72
2019-05-17T12:50:06.064Z,100048.75
2019-05-17T12:52:37.621Z,100047.00
2019-05-17T12:55:09.753Z,100043.94
2019-05-17T12:57:41.297Z,100046.14
2019-05-17T13:00:13.855Z,100045.56
2019-05-17T13:02:45.567Z,100041.12
2019-05-17T13:05:17.666Z,100044.64
2019-05-17T13:07:49.814Z,100044.45
2019-05-17T13:10:21.460Z,100039.83
2019-05-17T13:12:53.319Z,100041.81
2019-05-17T13:15:25.191Z,100010.64
2019-05-17T13:17:56.991Z,100049.65
2019-05-17T13:20:28.412Z,100045.25
2019-05-17T13:23:00.042Z,100041.55
2019-05-17T13:25:31.366Z,100046.17
2019-05-17T13:28:02.984Z,100039.81
2019-05-17T13:30:35.057Z,100044.11
2019-05-17T13:33:06.690Z,100043.00
2019-05-17T13:35:38.442Z,100037.67
2019-05-17T13:38:09.973Z,100032.61
2019-05-17T13:40:41.536Z,100037.10
2019-05-17T13:43:13.390Z,100035.62
2019-05-17T13:45:44.883Z,100036.88
2019-05-17T13:48:16.506Z,100033.39
2019-05-17T13:50:51.862Z,100021.39
2019-05-17T13:53:21.540Z,100026.95
2019-05-17T13:55:52.831Z,100026.35
2019-05-17T13:58:24.800Z,100020.98
2019-05-17T14:00:57.625Z,100023.53
2019-05-17T14:03:29.325Z,100021.67
2019-05-17T14:06:03.407Z,100018.83
2019-05-17T14:08:34.953Z,100013.06
2019-05-17T14:11:06.622Z,100017.77
2019-05-17T14:13:38.681Z,100018.59
2019-05-17T14:16:10.325Z,100017.73
2019-05-17T14:18:42.183Z,100020.64
2019-05-17T14:21:13.699Z,100017.39
2019-05-17T14:23:46.305Z,100018.84
2019-05-17T14:26:18.274Z,100018.54
2019-05-17T14:28:50.272Z,100024.41
2019-05-17T14:31:21.619Z,100020.06
2019-05-17T14:33:53.642Z,100023.14
2019-05-17T14:36:25.633Z,100017.83
2019-05-17T14:38:57.535Z,100018.41
2019-05-17T14:41:29.412Z,100009.95
2019-05-17T14:44:01.398Z,100012.47
2019-05-17T14:46:33.356Z,100006.93
2019-05-17T14:49:05.726Z,99995.98
2019-05-17T14:51:37.643Z,100005.83
2019-05-17T14:54:08.937Z,100007.38
2019-05-17T14:56:41.492Z,100014.69
2019-05-17T14:59:13.349Z,100012.58
2019-05-17T15:01:45.020Z,100008.61
2019-05-17T15:04:16.991Z,100009.11
2019-05-17T15:06:48.686Z,99999.30
2019-05-17T15:09:21.271Z,99994.33
2019-05-17T15:11:53.109Z,100000.89
2019-05-17T15:14:29.431Z,99990.46
2019-05-17T15:17:00.376Z,99996.09
2019-05-17T15:19:32.157Z,99995.59
2019-05-17T15:22:04.058Z,99988.13
2019-05-17T15:24:38.196Z,99988.27
2019-05-17T15:33:39.212Z,99970.29
2019-05-17T15:36:11.489Z,99970.41
2019-05-17T15:38:43.545Z,99972.00
2019-05-17T15:41:15.325Z,99966.03
2019-05-17T15:43:47.860Z,99970.91
2019-05-17T15:46:20.445Z,99970.91
2019-05-17T15:48:52.015Z,99967.78
2019-05-17T15:51:23.132Z,99965.61
2019-05-17T15:53:54.496Z,99972.44
2019-05-17T15:56:25.609Z,99975.30
2019-05-17T15:58:57.222Z,99964.28
2019-05-17T16:01:28.319Z,99965.70
2019-05-17T16:03:59.385Z,99957.38
2019-05-17T16:06:31.962Z,99952.89
2019-05-17T16:09:05.079Z,99960.76
2019-05-17T16:11:36.199Z,99953.95
2019-05-17T16:14:07.512Z,99947.33
2019-05-17T16:16:38.731Z,99947.33
2019-05-17T16:19:09.774Z,99948.95
2019-05-17T16:21:41.281Z,99943.55
2019-05-17T16:24:12.884Z,99943.23
2019-05-17T16:26:43.775Z,99936.48
2019-05-17T16:29:15.097Z,99935.77
2019-05-17T16:31:46.139Z,99930.56
2019-05-17T16:34:17.507Z,99932.53
2019-05-17T16:36:48.778Z,99939.98
2019-05-17T16:39:20.124Z,99941.05
2019-05-17T16:41:51.111Z,99936.61
2019-05-17T16:44:24.872Z,99928.61
2019-05-17T16:46:56.132Z,99932.87
2019-05-17T16:49:28.562Z,99924.32
2019-05-17T16:51:59.604Z,99922.64
2019-05-17T16:54:30.997Z,99923.89
2019-05-17T16:57:02.016Z,99925.27
2019-05-17T16:59:33.017Z,99916.23
2019-05-17T17:02:04.339Z,99915.77
2019-05-17T17:04:36.351Z,99918.63
2019-05-17T17:07:07.452Z,99912.17
2019-05-17T17:09:39.447Z,99908.59
2019-05-17T17:12:10.520Z,99911.55
2019-05-17T17:14:42.003Z,99905.05
2019-05-17T17:17:13.646Z,99911.02
2019-05-17T17:19:45.108Z,99911.05
2019-05-17T17:22:16.307Z,99904.66
2019-05-17T17:24:47.334Z,99907.23
2019-05-17T17:27:18.573Z,99906.27
2019-05-17T17:29:50.068Z,99906.89
2019-05-17T17:32:21.913Z,99910.92
2019-05-17T17:34:53.925Z,99918.89
2019-05-17T17:37:25.406Z,99908.97
2019-05-17T17:39:56.710Z,99913.71
2019-05-17T17:42:29.436Z,99906.80
2019-05-17T17:45:00.797Z,99916.28
2019-05-17T17:47:32.270Z,99913.20
2019-05-17T17:50:04.768Z,99913.05
2019-05-17T17:52:37.594Z,99915.61
2019-05-17T17:55:08.915Z,99911.28
2019-05-17T17:57:41.605Z,99911.97
2019-05-17T18:00:14.097Z,99903.84
2019-05-17T18:02:45.593Z,99907.04
2019-05-17T18:05:16.784Z,99905.71
2019-05-17T18:07:49.236Z,99901.49
2019-05-17T18:10:30.924Z,99897.17
2019-05-17T18:13:02.084Z,99897.19
2019-05-17T18:15:41.164Z,99895.86
2019-05-17T18:18:12.986Z,99891.67
2019-05-17T18:20:44.215Z,99897.94
2019-05-17T18:23:19.030Z,99896.63
2019-05-17T18:25:48.712Z,99901.45
2019-05-17T18:28:23.166Z,99899.66
2019-05-17T18:30:55.004Z,99906.09
2019-05-17T18:33:26.886Z,99897.88
2019-05-17T18:35:58.898Z,99906.66
2019-05-17T18:38:33.959Z,99906.30
2019-05-17T18:41:06.151Z,99911.44
2019-05-17T18:43:37.185Z,99902.87
2019-05-17T18:46:08.866Z,99913.86
2019-05-17T18:48:40.162Z,99913.97
2019-05-17T18:51:11.897Z,99910.20
2019-05-17T18:53:43.870Z,99903.50
2019-05-17T18:56:15.865Z,99908.97
2019-05-17T18:58:47.557Z,99910.88
2019-05-17T19:01:20.758Z,99913.81
2019-05-17T19:03:53.701Z,99911.64
2019-05-17T19:06:25.075Z,99911.45
2019-05-17T19:08:59.002Z,99911.22
2019-05-17T19:11:33.771Z,99919.44
2019-05-17T19:14:05.073Z,99919.44
2019-05-17T19:16:36.498Z,99911.59
2019-05-17T19:19:09.010Z,99917.18
2019-05-17T19:21:41.590Z,99922.35
2019-05-17T19:24:13.091Z,99924.09
2019-05-17T19:26:45.323Z,99921.69
2019-05-17T19:29:17.051Z,99923.64
2019-05-17T19:31:49.326Z,99924.14
2019-05-17T19:34:21.066Z,99931.27
2019-05-17T19:36:52.773Z,99933.95
2019-05-17T19:39:24.711Z,99930.66
2019-05-17T19:41:56.137Z,99936.00
2019-05-17T19:44:28.401Z,99936.38
2019-05-17T19:46:59.966Z,99935.17
2019-05-17T19:49:35.259Z,99939.37
2019-05-17T19:52:09.320Z,99943.73
2019-05-17T19:54:40.296Z,99939.53
2019-05-17T19:57:12.100Z,99938.06
2019-05-17T19:59:43.479Z,99936.97
2019-05-17T20:02:14.576Z,99935.42
2019-05-17T20:04:45.991Z,99937.84
2019-05-17T20:07:17.825Z,99935.16
2019-05-17T20:09:49.999Z,99934.58
2019-05-17T20:12:21.153Z,99937.33
2019-05-17T20:14:52.332Z,99932.50
2019-05-17T20:17:23.525Z,99933.84
2019-05-17T20:19:55.084Z,99929.48
2019-05-17T20:22:26.439Z,99929.34
2019-05-17T20:24:57.850Z,99933.22
2019-05-17T20:27:28.988Z,99927.74
2019-05-17T20:30:00.325Z,99922.58
2019-05-17T20:32:31.769Z,99918.94
2019-05-17T20:35:02.887Z,99919.64
2019-05-17T20:37:36.884Z,99925.33
2019-05-17T20:40:08.283Z,99923.13
2019-05-17T20:42:39.426Z,99919.70
2019-05-17T20:45:11.355Z,99915.48
2019-05-17T20:47:42.757Z,99917.04
2019-05-17T20:50:15.714Z,99911.43
2019-05-17T20:52:47.308Z,99920.63
2019-05-17T20:55:18.963Z,99918.22
2019-05-17T20:57:51.200Z,99919.20
2019-05-17T21:00:22.280Z,99920.81
2019-05-17T21:02:53.320Z,99912.84
2019-05-17T21:05:24.690Z,99915.89
2019-05-17T21:07:56.045Z,99909.86
2019-05-17T21:10:27.088Z,99902.47
2019-05-17T21:12:58.107Z,99915.78
2019-05-17T21:15:29.429Z,99915.47
2019-05-17T21:18:01.137Z,99911.01
2019-05-17T21:20:32.425Z,99910.58
2019-05-17T21:23:03.567Z,99906.31
2019-05-17T21:25:34.651Z,99908.08
2019-05-17T21:28:05.646Z,99913.83
2019-05-17T21:30:36.767Z,99917.61
2019-05-17T21:33:08.014Z,99908.74
2019-05-17T21:35:39.016Z,99904.95
2019-05-17T21:38:10.083Z,99912.15
2019-05-17T21:40:41.561Z,99911.64
2019-05-17T21:43:12.665Z,99911.44
2019-05-17T21:45:45.854Z,99905.98
2019-05-17T21:48:17.148Z,99903.42
2019-05-17T21:50:48.123Z,99908.17
2019-05-17T21:53:19.119Z,99909.73
2019-05-17T21:55:50.069Z,99908.92
2019-05-17T21:58:21.325Z,99912.60
2019-05-17T22:01:23.268Z,99912.73
2019-05-17T22:03:58.651Z,99908.92
2019-05-17T22:06:29.695Z,99907.61
2019-05-17T22:09:01.219Z,99902.22
2019-05-17T22:11:34.145Z,99906.22
2019-05-17T22:14:05.424Z,99900.80
2019-05-17T22:16:36.739Z,99907.64
2019-05-17T22:19:07.874Z,99902.51
2019-05-17T22:21:38.910Z,99902.51
2019-05-17T22:24:09.930Z,99915.30
2019-05-17T22:26:41.261Z,99913.41
2019-05-17T22:29:12.351Z,99909.97
2019-05-17T22:31:43.667Z,99911.87
2019-05-17T22:34:14.687Z,99915.78
2019-05-17T22:36:45.752Z,99915.67
2019-05-17T22:39:17.151Z,99912.43
2019-05-17T22:41:48.201Z,99908.59
2019-05-17T22:44:19.286Z,99906.95
2019-05-17T22:46:50.334Z,99903.67
2019-05-17T22:49:21.453Z,99909.84
2019-05-17T22:51:53.537Z,99905.04
2019-05-17T22:54:24.646Z,99909.80
2019-05-17T22:56:55.799Z,99902.17
2019-05-17T22:59:27.120Z,99903.03
2019-05-17T23:01:58.088Z,99896.27
2019-05-17T23:04:29.064Z,99895.67
2019-05-17T23:07:00.333Z,99888.64
2019-05-17T23:09:31.821Z,99896.83
2019-05-17T23:12:03.364Z,99900.81
2019-05-17T23:14:34.447Z,99896.27
2019-05-17T23:17:05.943Z,99888.16
2019-05-17T23:19:36.969Z,99887.05
2019-05-17T23:22:08.306Z,99891.33
2019-05-17T23:24:39.369Z,99885.25
2019-05-17T23:27:10.627Z,99876.81
2019-05-17T23:29:42.019Z,99874.89
2019-05-17T23:32:13.353Z,99873.35
2019-05-17T23:34:44.412Z,99871.77
2019-05-17T23:37:15.792Z,99863.44
2019-05-17T23:39:46.813Z,99864.80
2019-05-17T23:42:18.230Z,99863.44
2019-05-17T23:44:49.751Z,99863.56
2019-05-17T23:47:20.719Z,99853.52
2019-05-17T23:49:52.069Z,99857.09
2019-05-17T23:52:23.358Z,99848.33
2019-05-17T23:54:54.442Z,99849.52
2019-05-17T23:57:25.759Z,99853.30
2019-05-17T23:59:56.879Z,99855.51
